Time;durP1;ratioP1;P1;durP2;ratioP2;P2;SDS_P1;SDS_P2;PMS_P1;PMS_P2;Temp;Humidity;BMP_temperature;BMP_pressure;BME280_temperature;BME280_humidity;BME280_pressure;Samples;Min_cycle;Max_cycle;Signal;HPM_P1;HPM_P2
2022/11/07 00:01:15;;;;;;;;;;;3.80;99.90;;;;;;2720950;39;20311;31
2022/11/07 00:03:49;;;;;;;;;;;3.80;99.90;;;;;;2622211;46;19989;31
2022/11/07 00:06:22;;;;;;;;;;;3.80;99.90;;;;;;2622421;46;20482;31
2022/11/07 00:08:59;;;;;;;;;;;3.80;99.90;;;;;;2603706;54;19934;31
2022/11/07 00:11:33;;;;;;;;;;;3.90;99.90;;;;;;2603540;54;20737;31
2022/11/07 00:14:08;;;;;;;;;;;3.90;99.90;;;;;;2622096;46;19946;31
2022/11/07 00:16:42;;;;;;;;;;;3.90;99.90;;;;;;2603830;54;19960;31
2022/11/07 00:19:16;;;;;;;;;;;3.90;99.90;;;;;;2603701;54;19954;31
2022/11/07 00:21:50;;;;;;;;;;;4.00;99.90;;;;;;2603858;54;19942;31
2022/11/07 00:24:28;;;;;;;;;;;4.10;99.90;;;;;;2720628;39;20467;31
2022/11/07 00:27:03;;;;;;;;;;;4.00;99.90;;;;;;2721087;39;20353;31
2022/11/07 00:29:37;;;;;;;;;;;5.00;99.90;;;;;;2622170;46;19958;31
2022/11/07 00:32:11;;;;;;;;;;;4.00;99.90;;;;;;2622099;46;19941;31
2022/11/07 00:34:45;;;;;;;;;;;4.00;99.90;;;;;;2603766;54;19941;31
2022/11/07 00:37:20;;;;;;;;;;;4.10;99.90;;;;;;2603551;54;19940;31
2022/11/07 00:39:57;;;;;;;;;;;4.10;99.90;;;;;;2603437;54;19986;31
2022/11/07 00:42:30;;;;;;;;;;;4.10;99.90;;;;;;2603537;54;19934;31
2022/11/07 00:45:05;;;;;;;;;;;4.10;99.90;;;;;;2622126;46;19934;31
2022/11/07 00:47:39;;;;;;;;;;;4.10;99.90;;;;;;2603285;54;20798;31
2022/11/07 00:50:14;;;;;;;;;;;4.10;99.90;;;;;;2603404;54;19957;31
2022/11/07 00:52:48;;;;;;;;;;;4.10;99.90;;;;;;2621661;46;19934;31
2022/11/07 00:55:25;;;;;;;;;;;4.00;99.90;;;;;;2621991;46;19934;31
2022/11/07 00:57:58;;;;;;;;;;;4.00;99.90;;;;;;2603471;54;20013;31
2022/11/07 01:00:33;;;;;;;;;;;4.00;99.90;;;;;;2702221;39;20316;31
2022/11/07 01:06:00;;;;;;;;;;;4.00;99.90;;;;;;2621661;46;20780;31
2022/11/07 01:08:34;;;;;;;;;;;4.00;99.90;;;;;;2603570;54;20755;31
2022/11/07 01:11:10;;;;;;;;;;;4.00;99.90;;;;;;2603347;54;19950;31
2022/11/07 01:13:44;;;;;;;;;;;4.00;99.90;;;;;;2603296;54;21245;31
2022/11/07 01:16:18;;;;;;;;;;;4.00;99.90;;;;;;2603504;54;20748;31
2022/11/07 01:18:55;;;;;;;;;;;4.00;99.90;;;;;;2603511;54;19934;31
2022/11/07 01:21:30;;;;;;;;;;;3.90;99.90;;;;;;2614969;46;19942;31
2022/11/07 01:24:11;;;;;;;;;;;3.90;99.90;;;;;;2621044;46;19956;31
2022/11/07 01:26:50;;;;;;;;;;;3.90;99.90;;;;;;2603558;54;19960;31
2022/11/07 01:29:24;;;;;;;;;;;3.80;99.90;;;;;;2622037;46;19981;31
2022/11/07 01:31:59;;;;;;;;;;;3.80;99.90;;;;;;2702180;39;20346;31
2022/11/07 01:34:32;;;;;;;;;;;3.70;99.90;;;;;;2603499;54;19934;31
2022/11/07 01:37:07;;;;;;;;;;;3.70;99.90;;;;;;2602883;54;20033;31
2022/11/07 01:39:41;;;;;;;;;;;3.60;99.90;;;;;;2603393;54;19939;31
2022/11/07 01:42:20;;;;;;;;;;;3.60;99.90;;;;;;2603590;54;19935;31
2022/11/07 01:44:55;;;;;;;;;;;3.60;99.90;;;;;;2621657;46;19935;31
2022/11/07 01:47:30;;;;;;;;;;;3.60;99.90;;;;;;2621873;46;19946;31
2022/11/07 01:50:04;;;;;;;;;;;3.60;99.90;;;;;;2603231;54;19997;31
2022/11/07 01:52:38;;;;;;;;;;;3.60;99.90;;;;;;2603271;54;19989;31
2022/11/07 01:55:12;;;;;;;;;;;3.60;99.90;;;;;;2621851;47;19934;31
2022/11/07 01:57:51;;;;;;;;;;;3.60;99.90;;;;;;2603109;54;20762;31
2022/11/07 02:00:26;;;;;;;;;;;3.50;99.90;;;;;;2603946;54;20778;31
2022/11/07 02:03:02;;;;;;;;;;;3.50;99.90;;;;;;2603923;54;19985;31
2022/11/07 02:05:37;;;;;;;;;;;3.50;99.90;;;;;;2603988;54;19939;31
2022/11/07 02:08:11;;;;;;;;;;;3.40;99.90;;;;;;2604011;54;19934;31
2022/11/07 02:10:44;;;;;;;;;;;3.40;99.90;;;;;;2604016;54;19960;31
2022/11/07 02:13:21;;;;;;;;;;;3.40;99.90;;;;;;2622761;46;19934;31
2022/11/07 02:15:58;;;;;;;;;;;3.40;99.90;;;;;;2603916;54;20740;31
2022/11/07 02:18:35;;;;;;;;;;;3.40;99.90;;;;;;2622893;46;20733;31
2022/11/07 02:21:10;;;;;;;;;;;3.50;99.90;;;;;;2622487;46;20005;31
2022/11/07 02:23:46;;;;;;;;;;;3.50;99.90;;;;;;2603792;54;20838;31
2022/11/07 02:26:23;;;;;;;;;;;3.50;99.90;;;;;;2604054;54;19957;31
2022/11/07 02:28:59;;;;;;;;;;;3.50;99.90;;;;;;2604226;54;19941;31
2022/11/07 02:31:33;;;;;;;;;;;3.50;99.90;;;;;;2603191;54;19969;31
2022/11/07 02:34:07;;;;;;;;;;;3.50;99.90;;;;;;2604289;54;20765;31
2022/11/07 02:36:42;;;;;;;;;;;3.40;99.90;;;;;;2603940;54;20794;31
2022/11/07 02:39:17;;;;;;;;;;;3.40;99.90;;;;;;2603848;54;20011;31
2022/11/07 02:41:54;;;;;;;;;;;3.40;99.90;;;;;;2622384;46;20751;31
2022/11/07 02:44:28;;;;;;;;;;;3.50;99.90;;;;;;2603821;54;20724;31
2022/11/07 02:47:04;;;;;;;;;;;3.50;99.90;;;;;;2603915;54;19939;31
2022/11/07 02:49:39;;;;;;;;;;;3.60;99.90;;;;;;2603921;54;19941;31
2022/11/07 02:52:14;;;;;;;;;;;3.60;99.90;;;;;;2604085;54;19960;31
2022/11/07 02:54:49;;;;;;;;;;;3.60;99.90;;;;;;2603777;54;20810;31
2022/11/07 02:57:25;;;;;;;;;;;3.60;99.90;;;;;;2622661;46;19942;31
2022/11/07 03:00:00;;;;;;;;;;;3.70;99.90;;;;;;2622401;46;19938;31
2022/11/07 03:02:45;;;;;;;;;;;3.70;99.90;;;;;;2622532;46;19961;31
2022/11/07 03:05:20;;;;;;;;;;;3.70;99.90;;;;;;2603487;54;20814;31
2022/11/07 03:07:55;;;;;;;;;;;3.80;99.90;;;;;;2603960;54;19942;31
2022/11/07 03:10:30;;;;;;;;;;;3.80;99.90;;;;;;2603719;54;19985;31
2022/11/07 03:13:08;;;;;;;;;;;3.80;99.90;;;;;;2603709;54;20020;31
2022/11/07 03:15:42;;;;;;;;;;;3.80;99.90;;;;;;2606072;46;20782;31
2022/11/07 03:18:17;;;;;;;;;;;3.90;99.90;;;;;;2622140;46;20750;31
2022/11/07 03:20:51;;;;;;;;;;;3.90;99.90;;;;;;2603784;54;20022;31
2022/11/07 03:23:25;;;;;;;;;;;3.90;99.90;;;;;;2603886;54;19941;31
2022/11/07 03:25:58;;;;;;;;;;;3.90;99.90;;;;;;2603747;54;19956;31
2022/11/07 03:28:36;;;;;;;;;;;4.00;99.90;;;;;;2622188;46;19961;31
2022/11/07 03:31:11;;;;;;;;;;;4.00;99.90;;;;;;2604061;54;19940;31
2022/11/07 03:33:47;;;;;;;;;;;4.00;99.90;;;;;;2603950;54;19941;31
2022/11/07 03:36:24;;;;;;;;;;;4.00;99.90;;;;;;2603917;54;20740;31
2022/11/07 03:39:03;;;;;;;;;;;4.00;99.90;;;;;;2603786;54;19942;31
2022/11/07 03:41:39;;;;;;;;;;;4.00;99.90;;;;;;2622294;46;19938;31
2022/11/07 03:44:15;;;;;;;;;;;4.10;99.90;;;;;;2622371;46;19935;31
2022/11/07 03:46:52;;;;;;;;;;;4.00;99.90;;;;;;2603526;54;19935;31
2022/11/07 03:49:26;;;;;;;;;;;4.10;99.90;;;;;;2603770;54;20765;31
2022/11/07 03:52:05;;;;;;;;;;;4.10;99.90;;;;;;2622226;46;19993;31
2022/11/07 03:54:41;;;;;;;;;;;4.10;99.90;;;;;;2604055;54;19938;31
2022/11/07 03:57:18;;;;;;;;;;;4.10;99.90;;;;;;2603463;54;20845;31
2022/11/07 03:59:57;;;;;;;;;;;4.10;99.90;;;;;;2622379;46;20710;31
2022/11/07 04:02:31;;;;;;;;;;;4.10;99.90;;;;;;2602734;54;19942;31
2022/11/07 04:05:07;;;;;;;;;;;4.20;99.90;;;;;;2602869;54;20799;31
2022/11/07 04:07:42;;;;;;;;;;;4.10;99.90;;;;;;2603735;54;20765;31
2022/11/07 04:10:16;;;;;;;;;;;4.10;99.90;;;;;;2622209;46;20728;31
2022/11/07 04:18:32;;;;;;;;;;;4.10;99.90;;;;;;2621606;46;20024;31
2022/11/07 04:21:06;;;;;;;;;;;4.10;99.90;;;;;;2603610;54;19934;31
2022/11/07 04:23:41;;;;;;;;;;;4.10;99.90;;;;;;2619515;46;20903;31
2022/11/07 04:29:08;;;;;;;;;;;4.10;99.90;;;;;;2603790;54;19939;31
2022/11/07 04:31:50;;;;;;;;;;;4.20;99.90;;;;;;2603732;54;20674;31
2022/11/07 04:34:24;;;;;;;;;;;4.20;99.90;;;;;;2603369;54;20802;31
2022/11/07 04:36:59;;;;;;;;;;;4.20;99.90;;;;;;2622100;46;19989;31
2022/11/07 04:39:33;;;;;;;;;;;4.20;99.90;;;;;;2621942;46;19935;31
2022/11/07 04:42:07;;;;;;;;;;;4.20;99.90;;;;;;2603471;54;19935;31
2022/11/07 04:44:42;;;;;;;;;;;4.30;99.90;;;;;;2603348;54;20884;31
2022/11/07 04:47:21;;;;;;;;;;;4.30;99.90;;;;;;2603500;54;19946;31
2022/11/07 04:49:56;;;;;;;;;;;4.30;99.90;;;;;;2603691;54;19946;31
2022/11/07 04:52:31;;;;;;;;;;;4.30;99.90;;;;;;2621870;46;20482;31
2022/11/07 04:55:05;;;;;;;;;;;4.90;99.90;;;;;;2603589;54;20737;31
2022/11/07 04:57:38;;;;;;;;;;;4.30;99.90;;;;;;2621713;46;20697;31
2022/11/07 05:00:11;;;;;;;;;;;4.40;99.90;;;;;;2603377;54;20800;31
2022/11/07 05:02:49;;;;;;;;;;;4.40;99.90;;;;;;2603476;54;19934;31
2022/11/07 05:05:23;;;;;;;;;;;4.40;99.90;;;;;;2603527;54;19935;31
2022/11/07 05:07:57;;;;;;;;;;;4.40;99.90;;;;;;2603581;54;19948;31
2022/11/07 05:13:03;;;;;;;;;;;4.40;99.90;;;;;;2621844;46;19941;31
2022/11/07 05:15:40;;;;;;;;;;;4.40;99.90;;;;;;2622136;46;20004;31
2022/11/07 05:18:19;;;;;;;;;;;4.50;99.90;;;;;;2622046;46;19956;31
2022/11/07 05:20:54;;;;;;;;;;;4.50;99.90;;;;;;2603438;54;19934;31
2022/11/07 05:23:27;;;;;;;;;;;4.50;99.90;;;;;;2621904;46;19956;31
2022/11/07 05:26:01;;;;;;;;;;;4.50;99.90;;;;;;2603293;54;20755;31
2022/11/07 05:28:36;;;;;;;;;;;4.60;99.90;;;;;;2603087;54;19942;31
2022/11/07 05:31:13;;;;;;;;;;;4.60;99.90;;;;;;2603558;54;20733;31
2022/11/07 05:33:52;;;;;;;;;;;4.60;99.90;;;;;;2621481;46;19946;31
2022/11/07 05:36:27;;;;;;;;;;;4.60;99.90;;;;;;2603435;54;20493;31
2022/11/07 05:39:01;;;;;;;;;;;4.70;99.90;;;;;;2603411;54;20778;31
2022/11/07 05:41:37;;;;;;;;;;;4.70;99.90;;;;;;2603475;54;20010;31
2022/11/07 05:44:12;;;;;;;;;;;4.70;99.90;;;;;;2622094;46;20689;31
2022/11/07 05:46:49;;;;;;;;;;;4.80;99.90;;;;;;2603615;54;19934;31
2022/11/07 05:49:27;;;;;;;;;;;4.80;99.90;;;;;;2602963;54;19976;31
2022/11/07 05:52:01;;;;;;;;;;;4.80;99.90;;;;;;2621969;46;20750;31
2022/11/07 05:54:36;;;;;;;;;;;4.90;99.90;;;;;;2603225;54;19950;31
2022/11/07 05:57:14;;;;;;;;;;;4.90;99.90;;;;;;2603514;54;20013;31
2022/11/07 05:59:59;;;;;;;;;;;4.90;99.90;;;;;;2701828;39;21393;31
2022/11/07 06:02:33;;;;;;;;;;;4.90;99.90;;;;;;2603332;54;19941;31
2022/11/07 06:05:10;;;;;;;;;;;5.00;99.90;;;;;;2603103;54;20797;31
2022/11/07 06:07:48;;;;;;;;;;;5.00;99.90;;;;;;2701920;39;20365;31
2022/11/07 06:10:22;;;;;;;;;;;5.00;99.90;;;;;;2621541;47;19935;31
2022/11/07 06:13:00;;;;;;;;;;;5.10;99.90;;;;;;2701533;39;21438;31
2022/11/07 06:15:36;;;;;;;;;;;5.10;99.90;;;;;;2603350;54;19940;31
2022/11/07 06:18:14;;;;;;;;;;;5.60;99.90;;;;;;2621460;47;19990;31
2022/11/07 06:20:48;;;;;;;;;;;5.10;99.90;;;;;;2603315;54;19935;31
2022/11/07 06:23:28;;;;;;;;;;;5.20;99.90;;;;;;2603251;54;20025;31
2022/11/07 06:26:02;;;;;;;;;;;5.20;99.90;;;;;;2603355;54;20496;31
2022/11/07 06:28:37;;;;;;;;;;;5.30;99.90;;;;;;2603210;54;19942;31
2022/11/07 06:31:10;;;;;;;;;;;5.30;99.90;;;;;;2603314;54;19935;31
2022/11/07 06:33:45;;;;;;;;;;;5.30;99.90;;;;;;2603233;54;19934;31
2022/11/07 06:36:19;;;;;;;;;;;5.30;99.90;;;;;;2603323;54;19989;31
2022/11/07 06:38:56;;;;;;;;;;;5.40;99.90;;;;;;2701808;39;20365;31
2022/11/07 06:41:31;;;;;;;;;;;5.40;99.90;;;;;;2621484;47;19959;31
2022/11/07 06:44:06;;;;;;;;;;;5.40;99.90;;;;;;2602766;54;19938;31
2022/11/07 06:46:40;;;;;;;;;;;5.40;99.90;;;;;;2603897;54;20736;31
2022/11/07 06:49:14;;;;;;;;;;;5.50;99.90;;;;;;2603858;54;20872;31
2022/11/07 06:51:52;;;;;;;;;;;5.50;99.90;;;;;;2603911;54;20486;31
2022/11/07 06:54:30;;;;;;;;;;;5.50;99.90;;;;;;2622211;46;19974;31
2022/11/07 06:57:06;;;;;;;;;;;5.60;99.90;;;;;;2774068;31;21400;31
2022/11/07 06:59:40;;;;;;;;;;;5.60;99.90;;;;;;2603887;54;21498;31
2022/11/07 07:02:15;;;;;;;;;;;5.70;99.90;;;;;;2622687;46;20776;31
2022/11/07 07:05:10;;;;;;;;;;;5.70;99.90;;;;;;2603520;54;19934;31
2022/11/07 07:07:51;;;;;;;;;;;5.70;99.90;;;;;;2603779;54;20768;31
2022/11/07 07:10:27;;;;;;;;;;;5.80;99.90;;;;;;2622426;46;19935;31
2022/11/07 07:13:02;;;;;;;;;;;5.80;99.90;;;;;;2617153;46;19943;31
2022/11/07 07:15:38;;;;;;;;;;;5.90;99.90;;;;;;2603520;54;19946;31
2022/11/07 07:18:25;;;;;;;;;;;5.90;99.90;;;;;;2622433;46;19993;31
2022/11/07 07:21:03;;;;;;;;;;;5.90;99.90;;;;;;2603764;54;19941;31
2022/11/07 07:23:40;;;;;;;;;;;6.00;99.90;;;;;;2622169;46;19934;31
2022/11/07 07:26:19;;;;;;;;;;;6.00;99.90;;;;;;2603576;54;20752;31
2022/11/07 07:28:55;;;;;;;;;;;6.10;99.90;;;;;;2603709;54;19934;31
2022/11/07 07:31:31;;;;;;;;;;;6.20;99.90;;;;;;2622750;46;19934;31
2022/11/07 07:34:04;;;;;;;;;;;6.40;99.90;;;;;;2603849;54;20771;31
2022/11/07 07:36:39;;;;;;;;;;;6.40;99.90;;;;;;2603824;54;20777;31
2022/11/07 07:39:15;;;;;;;;;;;6.50;99.90;;;;;;2622081;46;20711;31
2022/11/07 07:41:53;;;;;;;;;;;6.60;99.90;;;;;;2603882;54;19935;31
2022/11/07 07:44:31;;;;;;;;;;;7.40;99.90;;;;;;2602983;54;20814;31
2022/11/07 07:47:09;;;;;;;;;;;6.60;99.90;;;;;;2602900;54;19964;31
2022/11/07 07:49:44;;;;;;;;;;;6.70;99.90;;;;;;2622119;46;19934;31
2022/11/07 07:52:19;;;;;;;;;;;6.70;99.90;;;;;;2622132;46;20789;31
2022/11/07 07:54:54;;;;;;;;;;;6.70;99.90;;;;;;2603652;54;20690;31
2022/11/07 07:57:29;;;;;;;;;;;6.80;99.90;;;;;;2603699;54;20731;31
2022/11/07 08:00:07;;;;;;;;;;;6.80;99.90;;;;;;2603686;54;19998;31
2022/11/07 08:02:47;;;;;;;;;;;6.80;99.90;;;;;;2603657;54;20792;31
2022/11/07 08:05:20;;;;;;;;;;;6.90;99.90;;;;;;2603619;54;19938;31
2022/11/07 08:07:54;;;;;;;;;;;6.90;99.90;;;;;;2603808;54;19931;31
2022/11/07 08:10:31;;;;;;;;;;;7.00;99.90;;;;;;2603569;54;20765;31
2022/11/07 08:13:16;;;;;;;;;;;7.10;99.90;;;;;;2622096;46;19935;31
2022/11/07 08:15:56;;;;;;;;;;;7.10;99.90;;;;;;2603703;54;19997;31
2022/11/07 08:18:30;;;;;;;;;;;7.20;99.90;;;;;;2603683;54;19949;31
2022/11/07 08:21:07;;;;;;;;;;;7.30;99.90;;;;;;2603777;54;19938;31
2022/11/07 08:23:44;;;;;;;;;;;7.40;99.90;;;;;;2603641;54;20706;31
2022/11/07 08:26:18;;;;;;;;;;;7.50;99.90;;;;;;2603630;54;20792;31
2022/11/07 08:28:55;;;;;;;;;;;7.60;99.90;;;;;;2603547;54;19997;31
2022/11/07 08:31:33;;;;;;;;;;;7.70;99.90;;;;;;2622308;46;19938;31
2022/11/07 08:34:09;;;;;;;;;;;7.80;99.90;;;;;;2602677;54;20794;31
2022/11/07 08:36:44;;;;;;;;;;;7.90;99.90;;;;;;2603243;54;20013;31
2022/11/07 08:39:18;;;;;;;;;;;8.00;99.90;;;;;;2603330;54;19941;31
2022/11/07 08:41:53;;;;;;;;;;;8.20;99.90;;;;;;2603417;54;19993;31
2022/11/07 08:44:35;;;;;;;;;;;9.00;99.90;;;;;;2602833;54;20872;31
2022/11/07 08:47:11;;;;;;;;;;;8.30;99.90;;;;;;2622081;46;19989;31
2022/11/07 08:49:45;;;;;;;;;;;8.50;99.90;;;;;;2603359;54;19941;31
2022/11/07 08:52:19;;;;;;;;;;;8.50;99.90;;;;;;2603649;54;19934;31
2022/11/07 08:54:55;;;;;;;;;;;8.60;99.90;;;;;;2603731;54;20752;31
2022/11/07 08:57:29;;;;;;;;;;;8.70;99.90;;;;;;2603531;54;19976;31
2022/11/07 09:00:03;;;;;;;;;;;9.20;99.90;;;;;;2603249;54;19941;31
2022/11/07 09:02:40;;;;;;;;;;;9.20;99.90;;;;;;2621922;46;19941;31
2022/11/07 09:05:34;;;;;;;;;;;8.80;99.90;;;;;;2621665;46;22282;31
2022/11/07 09:08:08;;;;;;;;;;;8.90;99.90;;;;;;2621754;46;19934;31
2022/11/07 09:10:42;;;;;;;;;;;9.00;99.90;;;;;;2603362;54;19934;31
2022/11/07 09:13:16;;;;;;;;;;;9.00;99.90;;;;;;2603272;54;19938;31
2022/11/07 09:15:55;;;;;;;;;;;9.10;99.90;;;;;;2621730;46;20058;31
2022/11/07 09:18:34;;;;;;;;;;;9.10;99.90;;;;;;2603576;54;19946;31
2022/11/07 09:21:10;;;;;;;;;;;9.20;99.90;;;;;;2622025;46;19943;31
2022/11/07 09:23:55;;;;;;;;;;;9.30;99.90;;;;;;2603338;54;19934;31
2022/11/07 09:26:30;;;;;;;;;;;9.40;99.90;;;;;;2603161;54;19999;31
2022/11/07 09:29:08;;;;;;;;;;;9.40;99.90;;;;;;2622147;46;20044;31
2022/11/07 09:31:44;;;;;;;;;;;9.50;99.90;;;;;;2622022;46;20823;31
2022/11/07 09:34:21;;;;;;;;;;;9.60;99.90;;;;;;2603274;54;19934;31
2022/11/07 09:36:56;;;;;;;;;;;9.70;99.90;;;;;;2603259;54;20722;31
2022/11/07 09:39:31;;;;;;;;;;;9.70;99.90;;;;;;2603273;54;19946;31
2022/11/07 09:42:09;;;;;;;;;;;9.80;99.90;;;;;;2603172;54;20501;31
2022/11/07 09:44:52;;;;;;;;;;;9.90;99.90;;;;;;2621949;46;19934;31
2022/11/07 09:47:28;;;;;;;;;;;10.00;99.90;;;;;;2701712;39;21228;31
2022/11/07 09:50:05;;;;;;;;;;;10.10;99.90;;;;;;2603039;54;20496;31
2022/11/07 09:52:40;;;;;;;;;;;10.20;99.90;;;;;;2603402;54;19960;31
2022/11/07 09:55:17;;;;;;;;;;;10.30;99.90;;;;;;2603544;54;19940;31
2022/11/07 09:57:51;;;;;;;;;;;10.40;99.90;;;;;;2773380;31;20435;31
2022/11/07 10:00:28;;;;;;;;;;;10.50;99.90;;;;;;2621882;47;19997;31
2022/11/07 10:03:02;;;;;;;;;;;10.50;99.90;;;;;;2603474;54;19942;31
2022/11/07 10:05:40;;;;;;;;;;;10.60;99.90;;;;;;2621801;47;20774;31
2022/11/07 10:08:17;;;;;;;;;;;10.70;99.90;;;;;;2603019;54;20750;31
2022/11/07 10:10:55;;;;;;;;;;;10.80;99.90;;;;;;2602665;54;20713;31
2022/11/07 10:13:47;;;;;;;;;;;10.90;99.90;;;;;;2701631;39;21259;31
2022/11/07 10:16:23;;;;;;;;;;;10.90;99.90;;;;;;2603120;54;19946;31
2022/11/07 10:19:03;;;;;;;;;;;11.00;99.90;;;;;;2603126;54;20472;31
2022/11/07 10:21:42;;;;;;;;;;;11.00;99.90;;;;;;2712258;39;20358;31
2022/11/07 10:24:24;;;;;;;;;;;11.10;99.90;;;;;;2604088;54;19941;31
2022/11/07 10:26:59;;;;;;;;;;;11.10;99.90;;;;;;2622675;46;20029;31
2022/11/07 10:29:36;;;;;;;;;;;11.20;99.90;;;;;;2622391;46;20771;31
2022/11/07 10:32:19;;;;;;;;;;;11.20;99.90;;;;;;2603894;54;19950;31
2022/11/07 10:34:53;;;;;;;;;;;11.30;99.90;;;;;;2604033;54;19988;31
2022/11/07 10:37:31;;;;;;;;;;;11.30;99.90;;;;;;2614753;39;20306;31
2022/11/07 10:40:12;;;;;;;;;;;11.40;99.90;;;;;;2603930;54;20842;31
2022/11/07 10:42:46;;;;;;;;;;;11.50;99.90;;;;;;2703555;39;20242;31
2022/11/07 10:45:21;;;;;;;;;;;11.60;99.90;;;;;;2603910;54;19935;31
2022/11/07 10:47:59;;;;;;;;;;;11.60;99.90;;;;;;2604056;54;19957;31
2022/11/07 10:50:34;;;;;;;;;;;11.60;99.90;;;;;;2603867;54;19935;31
2022/11/07 10:53:18;;;;;;;;;;;11.70;99.90;;;;;;2603854;54;20825;31
2022/11/07 10:55:53;;;;;;;;;;;11.70;99.90;;;;;;2622414;46;19941;31
2022/11/07 10:58:27;;;;;;;;;;;11.70;99.90;;;;;;2603953;54;20346;31
2022/11/07 11:01:03;;;;;;;;;;;11.80;99.90;;;;;;2622466;46;20794;31
2022/11/07 11:03:41;;;;;;;;;;;11.80;99.90;;;;;;2613484;46;20759;31
2022/11/07 11:06:26;;;;;;;;;;;11.80;99.90;;;;;;2665527;39;20328;31
2022/11/07 11:09:00;;;;;;;;;;;11.90;99.90;;;;;;2603932;54;19971;31
2022/11/07 11:11:38;;;;;;;;;;;11.90;99.90;;;;;;2603843;54;19942;31
2022/11/07 11:14:13;;;;;;;;;;;12.00;99.90;;;;;;2622253;46;20782;31
2022/11/07 11:16:47;;;;;;;;;;;12.10;99.90;;;;;;2702569;39;20219;31
2022/11/07 11:19:25;;;;;;;;;;;12.20;99.90;;;;;;2603643;54;20840;31
2022/11/07 11:22:11;;;;;;;;;;;12.30;99.90;;;;;;2603745;54;19996;31
2022/11/07 11:24:44;;;;;;;;;;;12.40;99.90;;;;;;2605879;46;19935;31
2022/11/07 11:27:22;;;;;;;;;;;12.40;99.90;;;;;;2622490;46;20773;31
2022/11/07 11:29:56;;;;;;;;;;;12.50;99.90;;;;;;2603966;54;20722;31
2022/11/07 11:32:33;;;;;;;;;;;12.50;99.90;;;;;;2603358;54;20796;31
2022/11/07 11:35:10;;;;;;;;;;;12.50;99.90;;;;;;2603715;54;20781;31
2022/11/07 11:37:45;;;;;;;;;;;12.50;99.90;;;;;;2603777;54;19989;31
2022/11/07 11:40:20;;;;;;;;;;;12.50;99.90;;;;;;2603774;54;20001;31
2022/11/07 11:43:00;;;;;;;;;;;12.60;99.90;;;;;;2603729;54;19935;31
2022/11/07 11:45:36;;;;;;;;;;;12.50;99.90;;;;;;2603594;54;19957;31
2022/11/07 11:48:12;;;;;;;;;;;12.50;99.90;;;;;;2603893;54;19960;31
2022/11/07 11:50:45;;;;;;;;;;;12.60;99.90;;;;;;2603277;54;19941;31
2022/11/07 11:53:20;;;;;;;;;;;12.60;99.90;;;;;;2603016;54;20828;31
2022/11/07 11:55:56;;;;;;;;;;;12.60;99.90;;;;;;2603295;54;19935;31
2022/11/07 11:58:36;;;;;;;;;;;12.60;99.90;;;;;;2603793;54;20755;31
2022/11/07 12:01:14;;;;;;;;;;;12.70;99.90;;;;;;2603661;54;19934;31
2022/11/07 12:03:58;;;;;;;;;;;12.80;99.90;;;;;;2603216;54;20022;31
2022/11/07 12:06:38;;;;;;;;;;;12.80;99.90;;;;;;2622167;46;19985;31
2022/11/07 12:09:20;;;;;;;;;;;12.90;99.90;;;;;;2603500;54;21211;31
2022/11/07 12:11:58;;;;;;;;;;;13.00;99.90;;;;;;2621993;46;19960;31
2022/11/07 12:14:53;;;;;;;;;;;13.00;99.90;;;;;;2621989;46;19942;31
2022/11/07 12:17:35;;;;;;;;;;;13.10;99.90;;;;;;2622364;46;20801;31
2022/11/07 12:20:13;;;;;;;;;;;13.10;99.90;;;;;;2603679;54;20700;31
2022/11/07 12:22:50;;;;;;;;;;;13.10;99.90;;;;;;2603345;54;21194;31
2022/11/07 12:25:27;;;;;;;;;;;13.20;99.90;;;;;;2603698;54;19935;31
2022/11/07 12:28:03;;;;;;;;;;;13.10;99.90;;;;;;2603404;54;20753;31
2022/11/07 12:30:39;;;;;;;;;;;13.10;99.90;;;;;;2603486;54;19941;31
2022/11/07 12:33:20;;;;;;;;;;;13.10;99.90;;;;;;2622341;46;20788;31
2022/11/07 12:35:55;;;;;;;;;;;13.10;99.90;;;;;;2622027;46;19993;31
2022/11/07 12:38:38;;;;;;;;;;;13.10;99.90;;;;;;2603543;54;20814;31
2022/11/07 12:41:16;;;;;;;;;;;13.10;99.90;;;;;;2603459;54;19935;31
2022/11/07 12:43:53;;;;;;;;;;;13.10;99.90;;;;;;2621976;46;20742;31
2022/11/07 12:46:28;;;;;;;;;;;13.10;99.90;;;;;;2621904;46;19935;31
2022/11/07 12:49:11;;;;;;;;;;;13.10;99.90;;;;;;2603652;54;19941;31
2022/11/07 12:51:49;;;;;;;;;;;13.10;99.90;;;;;;2603294;54;20820;31
2022/11/07 12:54:29;;;;;;;;;;;13.00;99.90;;;;;;2620969;46;20811;31
2022/11/07 12:57:05;;;;;;;;;;;13.00;99.90;;;;;;2603416;54;19957;31
2022/11/07 12:59:39;;;;;;;;;;;13.00;99.90;;;;;;2603144;54;20765;31
2022/11/07 13:02:17;;;;;;;;;;;12.90;99.90;;;;;;2621592;46;20796;31
2022/11/07 13:04:55;;;;;;;;;;;13.00;99.90;;;;;;2603572;54;19935;31
2022/11/07 13:07:32;;;;;;;;;;;12.90;99.90;;;;;;2603655;54;19940;31
2022/11/07 13:10:11;;;;;;;;;;;12.90;99.90;;;;;;2603500;54;20803;31
2022/11/07 13:12:46;;;;;;;;;;;12.90;99.90;;;;;;2603511;54;19965;31
2022/11/07 13:15:20;;;;;;;;;;;12.80;99.90;;;;;;2603353;54;19934;31
2022/11/07 13:17:55;;;;;;;;;;;12.80;99.90;;;;;;2603240;54;20701;31
2022/11/07 13:20:33;;;;;;;;;;;12.80;99.90;;;;;;2603488;54;20783;31
2022/11/07 13:23:14;;;;;;;;;;;12.70;99.90;;;;;;2603316;54;19942;31
2022/11/07 13:25:49;;;;;;;;;;;12.70;99.90;;;;;;2603483;54;19957;31
2022/11/07 13:28:39;;;;;;;;;;;12.70;99.90;;;;;;2621453;46;20726;31
2022/11/07 13:31:30;;;;;;;;;;;12.70;99.90;;;;;;2604313;46;20764;31
2022/11/07 13:34:12;;;;;;;;;;;12.60;99.90;;;;;;2603081;54;20026;31
2022/11/07 13:36:50;;;;;;;;;;;12.60;99.90;;;;;;2621692;46;20812;31
2022/11/07 13:39:25;;;;;;;;;;;12.70;99.90;;;;;;2621488;46;19934;31
2022/11/07 13:41:59;;;;;;;;;;;12.60;99.90;;;;;;2603096;54;20009;31
2022/11/07 13:44:35;;;;;;;;;;;12.60;99.90;;;;;;2602981;54;19994;31
2022/11/07 13:47:12;;;;;;;;;;;12.60;99.90;;;;;;2603373;54;19939;31
2022/11/07 13:49:47;;;;;;;;;;;12.60;99.90;;;;;;2603429;54;20714;31
2022/11/07 13:52:24;;;;;;;;;;;12.60;99.90;;;;;;2603284;54;19934;31
2022/11/07 13:55:00;;;;;;;;;;;12.60;99.90;;;;;;2603017;54;20836;31
2022/11/07 13:57:35;;;;;;;;;;;12.60;99.90;;;;;;2621845;46;19934;31
2022/11/07 14:00:13;;;;;;;;;;;12.60;99.90;;;;;;2603297;54;20009;31
2022/11/07 14:02:51;;;;;;;;;;;12.50;99.90;;;;;;2621277;47;20870;31
2022/11/07 14:05:26;;;;;;;;;;;12.50;99.90;;;;;;2603107;54;19934;31
2022/11/07 14:08:05;;;;;;;;;;;12.50;99.90;;;;;;2602876;54;20250;31
2022/11/07 14:10:40;;;;;;;;;;;12.40;99.90;;;;;;2621521;47;20009;31
2022/11/07 14:13:16;;;;;;;;;;;12.40;99.90;;;;;;2617258;47;20775;31
2022/11/07 14:15:51;;;;;;;;;;;12.40;99.90;;;;;;2602956;54;20880;31
2022/11/07 14:18:28;;;;;;;;;;;12.30;99.90;;;;;;2621592;47;19970;31
2022/11/07 14:21:04;;;;;;;;;;;12.30;99.90;;;;;;2621700;47;19941;31
2022/11/07 14:26:17;;;;;;;;;;;12.30;99.90;;;;;;2621446;47;20805;31
2022/11/07 14:28:56;;;;;;;;;;;12.20;99.90;;;;;;2602893;54;19942;31
2022/11/07 14:31:31;;;;;;;;;;;12.20;99.90;;;;;;2621581;47;19941;31
2022/11/07 14:34:18;;;;;;;;;;;12.20;99.90;;;;;;2602806;54;20832;31
2022/11/07 14:36:52;;;;;;;;;;;12.10;99.90;;;;;;2621533;47;20806;31
2022/11/07 14:39:26;;;;;;;;;;;12.10;99.90;;;;;;2603073;54;19942;31
2022/11/07 14:42:05;;;;;;;;;;;12.10;99.90;;;;;;2621518;47;19947;31
2022/11/07 14:44:41;;;;;;;;;;;12.00;99.90;;;;;;2602833;54;20779;31
2022/11/07 14:47:29;;;;;;;;;;;12.00;99.90;;;;;;2603170;54;19934;31
2022/11/07 14:50:03;;;;;;;;;;;12.00;99.90;;;;;;2621510;46;19934;31
2022/11/07 14:52:39;;;;;;;;;;;12.00;99.90;;;;;;2603223;54;19934;31
2022/11/07 14:55:17;;;;;;;;;;;12.00;99.90;;;;;;2621654;47;19934;31
2022/11/07 14:57:55;;;;;;;;;;;12.00;99.90;;;;;;2602868;54;20803;31
2022/11/07 15:00:28;;;;;;;;;;;12.00;99.90;;;;;;2621247;47;19963;31
2022/11/07 15:03:02;;;;;;;;;;;11.90;99.90;;;;;;2621283;47;19942;31
2022/11/07 15:05:44;;;;;;;;;;;11.90;99.90;;;;;;2621468;47;20890;31
2022/11/07 15:08:28;;;;;;;;;;;11.90;99.90;;;;;;2702382;39;21202;31
2022/11/07 15:11:02;;;;;;;;;;;11.80;99.90;;;;;;2680639;39;20838;31
2022/11/07 15:13:41;;;;;;;;;;;11.90;99.90;;;;;;2603937;54;19941;31
2022/11/07 15:16:16;;;;;;;;;;;11.80;99.90;;;;;;2603619;54;20780;31
2022/11/07 15:18:51;;;;;;;;;;;11.80;99.90;;;;;;2603523;54;20013;31
2022/11/07 15:21:30;;;;;;;;;;;11.70;99.90;;;;;;2602936;54;20016;31
2022/11/07 15:24:20;;;;;;;;;;;11.70;99.90;;;;;;2617255;46;19938;31
2022/11/07 15:26:59;;;;;;;;;;;11.70;99.90;;;;;;2644751;39;20270;31
2022/11/07 15:29:36;;;;;;;;;;;11.60;99.90;;;;;;2603811;54;20014;31
2022/11/07 15:32:14;;;;;;;;;;;11.60;99.90;;;;;;2603474;54;20896;31
2022/11/07 15:34:50;;;;;;;;;;;11.60;99.90;;;;;;2602610;54;20422;31
2022/11/07 15:37:53;;;;;;;;;;;11.50;99.90;;;;;;2603592;54;20798;31
2022/11/07 15:40:27;;;;;;;;;;;11.50;99.90;;;;;;2603629;54;20728;31
2022/11/07 15:43:04;;;;;;;;;;;11.40;99.90;;;;;;2603747;54;20786;31
2022/11/07 15:45:43;;;;;;;;;;;11.40;99.90;;;;;;2603699;54;19935;31
2022/11/07 15:48:19;;;;;;;;;;;11.40;99.90;;;;;;2603577;54;20744;31
2022/11/07 15:50:54;;;;;;;;;;;11.30;99.90;;;;;;2603490;54;19934;31